Time;durP1;ratioP1;P1;durP2;ratioP2;P2;SDS_P1;SDS_P2;PMS_P1;PMS_P2;Temp;Humidity;BMP_temperature;BMP_pressure;BME280_temperature;BME280_humidity;BME280_pressure;Samples;Min_cycle;Max_cycle;Signal;HPM_P1;HPM_P2
2022/06/29 00:01:53;;;;;;;4.57;3.97;;;;;;;;;;5317985;27;20313;-80
2022/06/29 00:04:24;;;;;;;6.67;3.87;;;;;;;;;;5319876;27;20305;-81
2022/06/29 00:06:55;;;;;;;7.53;3.53;;;;;;;;;;5318817;27;20024;-81
2022/06/29 00:09:26;;;;;;;5.23;4.00;;;;;;;;;;5308504;27;20392;-81
2022/06/29 00:11:58;;;;;;;5.85;4.32;;;;;;;;;;5322886;27;20431;-81
2022/06/29 00:14:29;;;;;;;8.77;4.68;;;;;;;;;;5297812;27;20606;-80
2022/06/29 00:17:00;;;;;;;5.82;3.53;;;;;;;;;;5314899;27;20035;-80
2022/06/29 00:19:32;;;;;;;7.20;4.00;;;;;;;;;;5293257;27;20115;-80
2022/06/29 00:22:03;;;;;;;12.73;4.17;;;;;;;;;;5301259;28;20405;-80
2022/06/29 00:24:35;;;;;;;6.05;3.95;;;;;;;;;;5293441;27;20343;-80
2022/06/29 00:27:06;;;;;;;6.97;3.90;;;;;;;;;;5296417;27;20038;-80
2022/06/29 00:29:37;;;;;;;7.93;4.15;;;;;;;;;;5321351;27;20043;-80
2022/06/29 00:32:09;;;;;;;7.43;3.97;;;;;;;;;;5296593;27;20027;-80
2022/06/29 00:34:40;;;;;;;7.32;4.22;;;;;;;;;;5292425;27;20036;-80
2022/06/29 00:37:11;;;;;;;7.10;4.20;;;;;;;;;;5314414;27;20058;-80
2022/06/29 00:39:42;;;;;;;5.83;4.43;;;;;;;;;;5292792;27;20978;-80
2022/06/29 00:42:13;;;;;;;6.13;4.40;;;;;;;;;;5315897;27;20319;-80
2022/06/29 00:44:45;;;;;;;7.10;5.10;;;;;;;;;;5311457;27;20267;-80
2022/06/29 00:47:16;;;;;;;6.65;4.88;;;;;;;;;;5310802;27;20124;-80
2022/06/29 00:49:47;;;;;;;5.45;4.60;;;;;;;;;;5293913;27;20067;-80
2022/06/29 00:52:22;;;;;;;6.32;5.00;;;;;;;;;;5318092;27;20048;-80
2022/06/29 00:54:59;;;;;;;10.02;6.25;;;;;;;;;;5313975;27;20035;-81
2022/06/29 00:57:30;;;;;;;11.10;4.85;;;;;;;;;;5313023;27;20127;-80
2022/06/29 01:00:02;;;;;;;8.37;5.33;;;;;;;;;;5324843;27;20110;-80
2022/06/29 01:02:33;;;;;;;6.45;4.72;;;;;;;;;;5299844;27;20278;-80
2022/06/29 01:05:05;;;;;;;9.02;5.47;;;;;;;;;;5323129;27;20039;-80
2022/06/29 01:07:36;;;;;;;8.43;6.15;;;;;;;;;;5314731;27;20048;-80
2022/06/29 01:10:08;;;;;;;6.72;6.07;;;;;;;;;;5287475;27;20028;-80
2022/06/29 01:12:39;;;;;;;7.35;5.65;;;;;;;;;;5292043;27;20052;-80
2022/06/29 01:15:10;;;;;;;7.70;5.80;;;;;;;;;;5320087;27;20110;-80
2022/06/29 01:17:41;;;;;;;6.45;5.13;;;;;;;;;;5315001;27;20653;-80
2022/06/29 01:20:13;;;;;;;8.57;5.70;;;;;;;;;;5320381;27;20036;-80
2022/06/29 01:22:45;;;;;;;9.10;5.85;;;;;;;;;;5316484;27;20279;-80
2022/06/29 01:25:17;;;;;;;7.05;5.10;;;;;;;;;;5312462;27;20075;-80
2022/06/29 01:27:48;;;;;;;7.23;5.43;;;;;;;;;;5288982;27;20037;-80
2022/06/29 01:30:19;;;;;;;7.43;5.47;;;;;;;;;;5314510;27;20358;-81
2022/06/29 01:32:50;;;;;;;7.87;5.40;;;;;;;;;;5329194;27;20258;-80
2022/06/29 01:35:23;;;;;;;6.47;5.65;;;;;;;;;;5319814;27;20267;-80
2022/06/29 01:37:54;;;;;;;9.18;5.63;;;;;;;;;;5316362;27;20032;-80
2022/06/29 01:40:25;;;;;;;5.50;5.00;;;;;;;;;;5328791;27;20912;-80
2022/06/29 01:42:56;;;;;;;8.65;5.40;;;;;;;;;;5317295;27;20736;-81
2022/06/29 01:45:28;;;;;;;8.23;5.37;;;;;;;;;;5313583;27;20036;-80
2022/06/29 01:47:59;;;;;;;7.27;5.73;;;;;;;;;;5314044;27;20385;-81
2022/06/29 01:50:30;;;;;;;9.67;5.83;;;;;;;;;;5294494;27;20379;-80
2022/06/29 01:53:01;;;;;;;8.83;5.30;;;;;;;;;;5292991;27;20277;-80
2022/06/29 01:55:32;;;;;;;10.37;5.67;;;;;;;;;;5312964;27;20985;-80
2022/06/29 01:58:04;;;;;;;8.77;5.82;;;;;;;;;;5292477;27;20271;-80
2022/06/29 02:00:35;;;;;;;8.40;6.40;;;;;;;;;;5318649;27;20431;-81
2022/06/29 02:03:06;;;;;;;9.03;5.93;;;;;;;;;;5294344;27;20275;-80
2022/06/29 02:05:37;;;;;;;9.77;6.38;;;;;;;;;;5297119;27;20302;-80
2022/06/29 02:08:09;;;;;;;7.28;6.00;;;;;;;;;;5300170;27;20179;-80
2022/06/29 02:10:40;;;;;;;9.05;6.10;;;;;;;;;;5319318;27;20050;-80
2022/06/29 02:13:11;;;;;;;6.40;5.78;;;;;;;;;;5318828;27;20028;-80
2022/06/29 02:15:42;;;;;;;11.63;6.23;;;;;;;;;;5318875;27;20027;-80
2022/06/29 02:18:13;;;;;;;7.87;6.17;;;;;;;;;;5317115;27;20274;-80
2022/06/29 02:20:45;;;;;;;7.03;6.00;;;;;;;;;;5313078;27;20762;-80
2022/06/29 02:23:20;;;;;;;9.35;6.75;;;;;;;;;;5324470;27;20086;-80
2022/06/29 02:25:51;;;;;;;8.40;6.93;;;;;;;;;;5313196;27;20032;-80
2022/06/29 02:28:23;;;;;;;8.97;6.80;;;;;;;;;;5315785;27;20025;-80
2022/06/29 02:36:33;;;;;;;10.23;7.35;;;;;;;;;;5330859;27;20037;-78
2022/06/29 02:39:05;;;;;;;8.87;6.70;;;;;;;;;;5323595;27;20118;-79
2022/06/29 02:41:36;;;;;;;9.03;7.47;;;;;;;;;;5335079;27;20274;-78
2022/06/29 02:44:07;;;;;;;10.50;6.93;;;;;;;;;;5329804;27;20307;-80
2022/06/29 02:46:38;;;;;;;7.83;7.13;;;;;;;;;;5300497;27;20404;-80
2022/06/29 02:49:09;;;;;;;10.80;7.57;;;;;;;;;;5299461;27;20373;-81
2022/06/29 02:51:40;;;;;;;8.10;7.27;;;;;;;;;;5318742;27;20302;-79
2022/06/29 02:54:12;;;;;;;12.30;7.77;;;;;;;;;;5325423;27;20056;-79
2022/06/29 02:56:43;;;;;;;9.70;7.60;;;;;;;;;;5299677;27;20030;-80
2022/06/29 02:59:14;;;;;;;9.27;7.23;;;;;;;;;;5319338;27;20024;-80
2022/06/29 03:01:45;;;;;;;8.93;7.55;;;;;;;;;;5321276;27;20286;-80
2022/06/29 03:04:17;;;;;;;11.77;7.43;;;;;;;;;;5310113;27;20550;-80
2022/06/29 03:06:48;;;;;;;11.52;8.70;;;;;;;;;;5294943;27;20035;-80
2022/06/29 03:09:19;;;;;;;11.30;8.03;;;;;;;;;;5327685;27;20111;-80
2022/06/29 03:11:50;;;;;;;9.02;8.00;;;;;;;;;;5320529;27;20278;-80
2022/06/29 03:14:22;;;;;;;9.47;7.83;;;;;;;;;;5322398;27;20474;-80
2022/06/29 03:16:53;;;;;;;12.75;8.18;;;;;;;;;;5298322;27;20027;-80
2022/06/29 03:19:24;;;;;;;10.97;7.90;;;;;;;;;;5321500;27;20058;-80
2022/06/29 03:21:55;;;;;;;8.70;7.82;;;;;;;;;;5304088;27;20081;-80
2022/06/29 03:24:26;;;;;;;8.77;7.87;;;;;;;;;;5313350;27;20396;-80
2022/06/29 03:26:58;;;;;;;10.87;8.00;;;;;;;;;;5310974;27;20107;-80
2022/06/29 03:29:29;;;;;;;9.30;8.00;;;;;;;;;;5312454;27;20259;-80
2022/06/29 03:32:00;;;;;;;10.03;7.83;;;;;;;;;;5319990;27;20764;-80
2022/06/29 03:34:31;;;;;;;9.48;8.55;;;;;;;;;;5312237;27;20307;-80
2022/06/29 03:37:02;;;;;;;17.03;8.43;;;;;;;;;;5317358;27;20520;-80
2022/06/29 03:39:34;;;;;;;11.10;8.85;;;;;;;;;;5295117;27;20353;-80
2022/06/29 03:42:05;;;;;;;13.68;8.75;;;;;;;;;;5312886;27;20507;-80
2022/06/29 03:44:36;;;;;;;10.15;8.50;;;;;;;;;;5312820;27;20406;-80
2022/06/29 03:47:08;;;;;;;9.88;7.90;;;;;;;;;;5312512;27;20357;-80
2022/06/29 03:49:39;;;;;;;10.77;8.15;;;;;;;;;;5311463;27;20024;-80
2022/06/29 03:52:10;;;;;;;12.97;8.10;;;;;;;;;;5312580;27;20794;-80
2022/06/29 03:57:53;;;;;;;;;;;;;;;;;;;;;
2022/06/29 04:00:33;;;;;;;9.85;8.85;;;;;;;;;;5331509;28;40753;-90
2022/06/29 04:03:31;;;;;;;9.80;8.80;;;;;;;;;;5258967;28;20077;-89
2022/06/29 04:06:36;;;;;;;10.30;8.55;;;;;;;;;;5241315;28;20029;-90
2022/06/29 04:13:01;;;;;;;10.02;7.57;;;;;;;;;;5258566;28;20041;-89
2022/06/29 04:16:13;;;;;;;12.38;8.55;;;;;;;;;;5251604;28;20037;-89
2022/06/29 04:22:16;;;;;;;13.80;8.73;;;;;;;;;;5196780;28;20045;-90
2022/06/29 04:25:21;;;;;;;;;;;;;;;;;;;;;
2022/06/29 04:28:31;;;;;;;;;;;;;;;;;;;;;
2022/06/29 04:41:09;;;;;;;10.93;9.82;;;;;;;;;;5212018;28;20062;-89
2022/06/29 04:57:05;;;;;;;11.55;9.63;;;;;;;;;;5132660;28;20040;-89
2022/06/29 05:00:07;;;;;;;10.73;8.80;;;;;;;;;;5134761;29;20409;-90
2022/06/29 05:03:12;;;;;;;11.15;8.50;;;;;;;;;;5161876;28;20034;-90
2022/06/29 05:06:10;;;;;;;11.88;8.45;;;;;;;;;;5158313;28;20044;-90
2022/06/29 05:15:50;;;;;;;8.68;7.88;;;;;;;;;;5156196;28;20096;-90
2022/06/29 05:25:41;;;;;;;10.43;6.68;;;;;;;;;;5173587;28;20041;-90
2022/06/29 05:40:19;;;;;;;11.43;6.00;;;;;;;;;;5198867;28;20043;-89
2022/06/29 05:43:09;;;;;;;10.93;5.50;;;;;;;;;;5175086;28;20087;-89
2022/06/29 05:49:08;;;;;;;7.68;5.03;;;;;;;;;;5190238;28;20051;-89
2022/06/29 05:52:11;;;;;;;6.90;4.32;;;;;;;;;;5179814;28;20039;-89
2022/06/29 05:58:18;;;;;;;;;;;;;;;;;;;;;
2022/06/29 06:01:09;;;;;;;7.80;4.82;;;;;;;;;;5201617;28;41736;-89
2022/06/29 06:04:05;;;;;;;;;;;;;;;;;;;;;
2022/06/29 06:06:47;;;;;;;6.88;4.10;;;;;;;;;;5182622;28;40688;-88
2022/06/29 06:13:09;;;;;;;;;;;;;;;;;;;;;
2022/06/29 06:18:59;;;;;;;5.40;3.42;;;;;;;;;;5198043;28;20039;-90
2022/06/29 06:25:58;;;;;;;5.00;3.35;;;;;;;;;;5222642;28;20070;-89
2022/06/29 06:31:42;;;;;;;8.73;3.47;;;;;;;;;;5223452;28;20057;-88
2022/06/29 06:44:45;;;;;;;;;;;;;;;;;;;;;
2022/06/29 06:50:47;;;;;;;5.13;2.70;;;;;;;;;;5264438;28;20021;-89
2022/06/29 06:53:51;;;;;;;7.22;2.45;;;;;;;;;;5290928;28;20036;-90
2022/06/29 07:00:03;;;;;;;6.82;2.30;;;;;;;;;;5256333;28;20072;-87
2022/06/29 07:03:01;;;;;;;8.65;2.35;;;;;;;;;;5283353;28;20024;-88
2022/06/29 07:08:42;;;;;;;5.97;2.25;;;;;;;;;;5260971;28;20036;-88
2022/06/29 07:18:40;;;;;;;5.57;1.98;;;;;;;;;;5238786;28;20026;-88
2022/06/29 07:24:24;;;;;;;3.90;1.73;;;;;;;;;;5216196;28;20610;-89
2022/06/29 07:30:29;;;;;;;;;;;;;;;;;;;;;
2022/06/29 07:33:26;;;;;;;3.30;1.70;;;;;;;;;;5248350;28;41831;-89
2022/06/29 07:43:08;;;;;;;3.40;1.67;;;;;;;;;;5217196;28;20568;-89
2022/06/29 07:46:23;;;;;;;;;;;;;;;;;;;;;
2022/06/29 07:52:28;;;;;;;4.88;1.83;;;;;;;;;;5245812;28;20061;-89
2022/06/29 07:55:24;;;;;;;3.42;1.30;;;;;;;;;;5241792;28;20119;-89
2022/06/29 07:58:13;;;;;;;;;;;;;;;;;;5242613;28;20615;-89
2022/06/29 08:01:06;;;;;;;4.30;1.20;;;;;;;;;;5259207;28;20007;-89
2022/06/29 08:03:46;;;;;;;3.40;1.58;;;;;;;;;;5243645;28;20068;-89
2022/06/29 08:06:54;;;;;;;3.35;1.45;;;;;;;;;;5243030;28;20541;-89
2022/06/29 08:09:53;;;;;;;2.30;1.20;;;;;;;;;;5176346;28;20170;-89
2022/06/29 08:22:41;;;;;;;3.50;1.08;;;;;;;;;;5155694;28;20035;-89
2022/06/29 08:25:37;;;;;;;2.88;1.00;;;;;;;;;;5181979;28;20034;-89
2022/06/29 08:35:32;;;;;;;1.92;0.88;;;;;;;;;;5156273;28;20064;-88
2022/06/29 08:54:49;;;;;;;3.30;1.10;;;;;;;;;;5258701;28;20116;-90
2022/06/29 08:58:17;;;;;;;1.75;1.02;;;;;;;;;;5216734;28;20050;-89
2022/06/29 09:01:28;;;;;;;2.88;0.90;;;;;;;;;;5135407;29;20048;-89
2022/06/29 09:14:00;;;;;;;3.70;1.10;;;;;;;;;;5161766;28;20124;-90
2022/06/29 09:20:13;;;;;;;1.45;0.90;;;;;;;;;;5189776;28;20035;-90
2022/06/29 09:23:29;;;;;;;3.40;1.10;;;;;;;;;;5192429;28;20411;-90
2022/06/29 09:26:37;;;;;;;3.03;1.23;;;;;;;;;;5151034;28;20504;-90
2022/06/29 09:29:46;;;;;;;;;;;;;;;;;;;;;
2022/06/29 09:39:34;;;;;;;2.67;0.90;;;;;;;;;;5143815;28;20048;-91
2022/06/29 09:46:03;;;;;;;;;;;;;;;;;;;;;
2022/06/29 09:56:01;;;;;;;4.22;1.33;;;;;;;;;;5185222;28;20115;-92
2022/06/29 10:03:00;;;;;;;;;;;;;;;;;;;;;
2022/06/29 10:06:05;;;;;;;5.80;0.88;;;;;;;;;;5088842;29;40842;-92
2022/06/29 10:08:53;;;;;;;;;;;;;;;;;;;;;
2022/06/29 10:14:59;;;;;;;;;;;;;;;;;;;;;
2022/06/29 10:18:25;;;;;;;1.65;0.70;;;;;;;;;;5178882;28;40537;-91
2022/06/29 10:24:42;;;;;;;4.47;1.00;;;;;;;;;;5217153;28;20034;-91
2022/06/29 10:31:21;;;;;;;;;;;;;;;;;;;;;
2022/06/29 10:43:07;;;;;;;4.38;0.93;;;;;;;;;;5100895;29;20393;-91
2022/06/29 10:44:14;;;;;;;1.83;0.80;;;;;;;;;;5076741;29;20030;-91
2022/06/29 10:47:14;;;;;;;3.65;1.00;;;;;;;;;;5141013;28;20072;-91
2022/06/29 10:50:39;;;;;;;1.33;0.90;;;;;;;;;;5145993;28;20043;-92
2022/06/29 10:56:43;;;;;;;6.38;0.90;;;;;;;;;;5156962;28;20031;-91
2022/06/29 10:59:58;;;;;;;2.17;0.98;;;;;;;;;;5158245;28;20036;-90
2022/06/29 11:03:08;;;;;;;2.40;0.80;;;;;;;;;;5178672;28;20496;-92
2022/06/29 11:17:55;;;;;;;1.33;0.80;;;;;;;;;;5291834;28;20089;-91
2022/06/29 11:20:52;;;;;;;2.72;0.90;;;;;;;;;;5294433;28;20033;-90
2022/06/29 11:24:02;;;;;;;5.63;1.27;;;;;;;;;;5276745;28;20037;-91
2022/06/29 11:34:20;;;;;;;2.03;1.02;;;;;;;;;;5179464;28;20186;-91
2022/06/29 11:37:06;;;;;;;3.75;1.02;;;;;;;;;;5151469;28;20063;-91
2022/06/29 11:43:23;;;;;;;;;;;;;;;;;;;;;
2022/06/29 11:52:50;;;;;;;3.03;0.93;;;;;;;;;;5260279;28;20442;-91
2022/06/29 11:59:18;;;;;;;;;;;;;;;;;;;;;
2022/06/29 12:05:20;;;;;;;3.03;1.00;;;;;;;;;;5306665;28;20033;-91
2022/06/29 12:11:17;;;;;;;2.95;0.90;;;;;;;;;;5324328;28;20032;-92
2022/06/29 12:14:34;;;;;;;;;;;;;;;;;;;;;
2022/06/29 12:17:19;;;;;;;3.28;0.98;;;;;;;;;;5278112;28;41165;-92
2022/06/29 12:20:31;;;;;;;4.83;1.00;;;;;;;;;;5272981;28;20048;-92
2022/06/29 12:23:31;;;;;;;2.90;0.88;;;;;;;;;;5276424;28;20061;-92
2022/06/29 12:29:41;;;;;;;4.63;1.40;;;;;;;;;;5279429;28;20044;-90
2022/06/29 12:32:41;;;;;;;;;;;;;;;;;;;;;
2022/06/29 12:35:40;;;;;;;10.65;1.70;;;;;;;;;;5277478;28;42577;-92
2022/06/29 12:38:17;;;;;;;3.25;1.00;;;;;;;;;;5243419;28;20042;-92
2022/06/29 12:41:19;;;;;;;3.80;0.95;;;;;;;;;;5273184;28;20424;-92
2022/06/29 12:44:39;;;;;;;2.15;1.20;;;;;;;;;;5251758;28;20137;-93
2022/06/29 12:50:29;;;;;;;5.28;1.00;;;;;;;;;;5324981;28;20104;-92
2022/06/29 12:56:50;;;;;;;;;;;;;;;;;;;;;
2022/06/29 13:02:39;;;;;;;2.67;1.10;;;;;;;;;;5269813;28;20064;-92
2022/06/29 13:18:45;;;;;;;3.45;1.05;;;;;;;;;;5177817;28;20091;-91
2022/06/29 13:21:38;;;;;;;5.88;1.30;;;;;;;;;;5145265;28;20079;-92
2022/06/29 13:27:47;;;;;;;5.88;1.40;;;;;;;;;;5164832;28;20027;-93
2022/06/29 13:30:38;;;;;;;2.75;1.30;;;;;;;;;;5202906;28;20046;-92
2022/06/29 13:33:26;;;;;;;3.92;1.58;;;;;;;;;;5163117;28;20103;-93
2022/06/29 13:36:05;;;;;;;3.67;1.00;;;;;;;;;;5152827;28;20043;-92
2022/06/29 13:39:11;;;;;;;1.92;0.77;;;;;;;;;;5176813;28;20031;-93
2022/06/29 13:42:22;;;;;;;3.65;1.02;;;;;;;;;;5190960;28;20076;-92
2022/06/29 13:48:29;;;;;;;3.85;0.95;;;;;;;;;;5116390;29;20490;-92
2022/06/29 13:51:11;;;;;;;4.22;1.00;;;;;;;;;;5139585;28;20396;-92
2022/06/29 13:54:07;;;;;;;1.73;0.95;;;;;;;;;;5176941;28;20047;-92
2022/06/29 13:56:53;;;;;;;2.05;1.08;;;;;;;;;;5183630;28;20039;-92
2022/06/29 14:03:04;;;;;;;3.65;1.00;;;;;;;;;;5173446;28;20480;-91
2022/06/29 14:06:19;;;;;;;3.00;1.10;;;;;;;;;;5203920;28;20269;-92
2022/06/29 14:09:31;;;;;;;;;;;;;;;;;;;;;
2022/06/29 14:19:07;;;;;;;;;;;;;;;;;;;;;
2022/06/29 14:25:35;;;;;;;3.53;1.00;;;;;;;;;;5229099;28;20017;-91
2022/06/29 14:44:52;;;;;;;4.30;1.02;;;;;;;;;;5221294;28;20035;-90
2022/06/29 14:47:55;;;;;;;2.25;1.08;;;;;;;;;;5104019;29;20193;-90
2022/06/29 14:57:16;;;;;;;;;;;;;;;;;;;;;
2022/06/29 15:03:20;;;;;;;;;;;;;;;;;;;;;
2022/06/29 15:06:00;;;;;;;2.72;1.17;;;;;;;;;;5219712;28;41065;-90
2022/06/29 15:08:59;;;;;;;2.75;1.17;;;;;;;;;;5301468;28;20058;-91
2022/06/29 15:27:45;;;;;;;4.78;1.13;;;;;;;;;;5343865;27;20044;-79
2022/06/29 15:30:17;;;;;;;3.60;1.00;;;;;;;;;;5347451;27;20031;-79
2022/06/29 15:32:48;;;;;;;2.58;1.10;;;;;;;;;;5337663;27;20023;-79
2022/06/29 15:41:00;;;;;;;2.50;0.82;;;;;;;;;;5326000;28;20519;-79
2022/06/29 15:43:31;;;;;;;1.40;1.02;;;;;;;;;;5326052;27;20016;-78
2022/06/29 15:46:02;;;;;;;3.67;1.20;;;;;;;;;;5339828;27;20031;-79
2022/06/29 15:48:33;;;;;;;3.97;1.30;;;;;;;;;;5340551;27;20044;-78
2022/06/29 15:51:05;;;;;;;2.40;1.03;;;;;;;;;;5326458;27;20034;-79
2022/06/29 15:56:26;;;;;;;4.70;1.58;;;;;;;;;;5343536;27;20067;-78
2022/06/29 15:58:57;;;;;;;6.70;1.23;;;;;;;;;;5342306;27;20452;-80
2022/06/29 16:01:28;;;;;;;3.90;1.20;;;;;;;;;;5347864;27;20024;-79
2022/06/29 16:04:00;;;;;;;3.27;1.00;;;;;;;;;;5334182;27;20028;-79
2022/06/29 16:06:31;;;;;;;1.85;1.10;;;;;;;;;;5339459;27;20258;-78
2022/06/29 16:09:03;;;;;;;2.83;1.10;;;;;;;;;;5334610;27;20044;-79
2022/06/29 16:14:24;;;;;;;3.92;1.20;;;;;;;;;;5335975;27;20126;-79
2022/06/29 16:16:56;;;;;;;2.90;1.70;;;;;;;;;;5333587;27;20168;-79
2022/06/29 16:19:27;;;;;;;5.77;1.43;;;;;;;;;;5336978;27;20047;-79
2022/06/29 16:21:58;;;;;;;3.97;1.30;;;;;;;;;;5340135;27;20067;-78
2022/06/29 16:24:29;;;;;;;4.25;1.20;;;;;;;;;;5336987;27;20046;-79
2022/06/29 16:27:01;;;;;;;3.03;1.20;;;;;;;;;;5340576;27;20430;-79
2022/06/29 16:29:32;;;;;;;2.00;1.10;;;;;;;;;;5332863;27;20638;-79
2022/06/29 16:32:04;;;;;;;2.83;1.25;;;;;;;;;;5335552;27;20040;-79
2022/06/29 16:34:36;;;;;;;3.13;1.30;;;;;;;;;;5335221;27;20467;-79
2022/06/29 16:37:07;;;;;;;3.53;1.23;;;;;;;;;;5337317;27;20167;-78
2022/06/29 16:39:38;;;;;;;2.20;1.23;;;;;;;;;;5341201;27;20024;-79
2022/06/29 16:42:09;;;;;;;5.30;1.60;;;;;;;;;;5341131;27;20039;-79
2022/06/29 16:44:40;;;;;;;5.33;1.30;;;;;;;;;;5344398;27;20027;-78
2022/06/29 16:47:12;;;;;;;2.77;1.10;;;;;;;;;;5339080;27;20173;-79
2022/06/29 16:49:43;;;;;;;4.10;1.30;;;;;;;;;;5339715;27;20066;-79
2022/06/29 16:52:14;;;;;;;2.90;1.30;;;;;;;;;;5334800;27;20106;-78
2022/06/29 16:54:45;;;;;;;5.68;1.55;;;;;;;;;;5329774;27;20031;-79
2022/06/29 16:57:17;;;;;;;3.50;1.10;;;;;;;;;;5331871;27;21031;-79
2022/06/29 16:59:48;;;;;;;3.23;1.30;;;;;;;;;;5336333;27;20081;-79
2022/06/29 17:02:19;;;;;;;4.53;1.50;;;;;;;;;;5339842;27;20582;-79
2022/06/29 17:04:50;;;;;;;1.90;1.00;;;;;;;;;;5337696;27;20102;-80
2022/06/29 17:07:21;;;;;;;2.50;1.10;;;;;;;;;;5340449;27;20459;-79
2022/06/29 17:09:53;;;;;;;5.50;1.23;;;;;;;;;;5340652;27;20478;-79
2022/06/29 17:12:24;;;;;;;9.68;1.40;;;;;;;;;;5338209;27;20191;-79
2022/06/29 17:14:55;;;;;;;6.50;1.20;;;;;;;;;;5340883;27;20027;-80
2022/06/29 17:17:26;;;;;;;2.97;1.10;;;;;;;;;;5346604;27;20111;-79
2022/06/29 17:19:57;;;;;;;2.55;1.00;;;;;;;;;;5357276;27;20042;-80
2022/06/29 17:22:29;;;;;;;5.07;1.30;;;;;;;;;;5360390;27;20071;-80
2022/06/29 17:25:00;;;;;;;3.30;1.50;;;;;;;;;;5357508;27;20284;-80
2022/06/29 17:27:31;;;;;;;2.67;1.33;;;;;;;;;;5349736;27;20270;-80
2022/06/29 17:30:03;;;;;;;4.27;1.20;;;;;;;;;;5336709;27;20502;-79
2022/06/29 17:32:34;;;;;;;4.50;1.60;;;;;;;;;;5346436;27;20292;-79
2022/06/29 17:35:06;;;;;;;3.42;1.30;;;;;;;;;;5342748;27;20035;-79
2022/06/29 17:37:38;;;;;;;3.55;1.00;;;;;;;;;;5332883;27;20024;-79
2022/06/29 17:40:09;;;;;;;3.13;1.42;;;;;;;;;;5344954;27;20035;-79
2022/06/29 17:42:41;;;;;;;5.43;1.33;;;;;;;;;;5340698;27;20026;-80
2022/06/29 17:45:12;;;;;;;9.48;1.67;;;;;;;;;;5340799;27;20440;-80
2022/06/29 17:47:43;;;;;;;7.07;1.80;;;;;;;;;;5341426;27;20029;-80
2022/06/29 17:50:15;;;;;;;4.63;1.47;;;;;;;;;;5345434;27;20432;-80
2022/06/29 17:52:46;;;;;;;4.97;1.42;;;;;;;;;;5341371;27;20249;-79
2022/06/29 17:55:17;;;;;;;4.57;1.53;;;;;;;;;;5344219;27;20050;-79
2022/06/29 17:57:48;;;;;;;5.93;1.90;;;;;;;;;;5335071;27;20099;-79
2022/06/29 18:00:20;;;;;;;12.07;3.08;;;;;;;;;;5341785;27;20421;-79
2022/06/29 18:02:51;;;;;;;5.50;1.98;;;;;;;;;;5335688;27;20043;-79
2022/06/29 18:05:22;;;;;;;4.43;2.13;;;;;;;;;;5335631;27;20119;-79
2022/06/29 18:07:54;;;;;;;5.63;1.90;;;;;;;;;;5340869;27;20062;-79
2022/06/29 18:10:25;;;;;;;9.25;2.28;;;;;;;;;;5345796;27;20055;-79
2022/06/29 18:12:56;;;;;;;7.33;2.00;;;;;;;;;;5343512;27;20107;-79
2022/06/29 18:15:28;;;;;;;9.65;2.60;;;;;;;;;;5346444;27;20049;-79
2022/06/29 18:17:59;;;;;;;7.25;2.20;;;;;;;;;;5349608;27;20360;-79
2022/06/29 18:20:30;;;;;;;5.80;2.40;;;;;;;;;;5346619;27;20032;-79
2022/06/29 18:23:01;;;;;;;6.77;2.23;;;;;;;;;;5334467;27;20442;-79
2022/06/29 18:25:33;;;;;;;6.13;2.55;;;;;;;;;;5334040;27;20618;-79
2022/06/29 18:28:04;;;;;;;8.10;1.85;;;;;;;;;;5342368;27;20042;-79
2022/06/29 18:30:36;;;;;;;7.37;2.40;;;;;;;;;;5343636;27;20383;-79
2022/06/29 18:33:07;;;;;;;9.48;2.60;;;;;;;;;;5339493;27;20120;-79
2022/06/29 18:35:38;;;;;;;5.57;2.80;;;;;;;;;;5342070;27;20024;-79
2022/06/29 18:38:11;;;;;;;4.57;2.20;;;;;;;;;;5346232;27;20038;-78
2022/06/29 18:40:43;;;;;;;7.57;2.13;;;;;;;;;;5345556;27;20285;-78
2022/06/29 18:43:14;;;;;;;5.95;2.00;;;;;;;;;;5340551;27;20408;-79
2022/06/29 18:45:48;;;;;;;7.05;2.35;;;;;;;;;;5351713;27;20024;-79
2022/06/29 18:48:20;;;;;;;7.68;2.83;;;;;;;;;;5340780;27;20051;-78
2022/06/29 18:50:51;;;;;;;4.72;1.75;;;;;;;;;;5339778;27;20059;-79
2022/06/29 18:53:22;;;;;;;4.70;2.10;;;;;;;;;;5335632;27;20051;-78
2022/06/29 18:55:53;;;;;;;3.85;1.90;;;;;;;;;;5345270;27;20110;-79
2022/06/29 18:58:25;;;;;;;5.68;2.03;;;;;;;;;;5339512;27;20363;-79
2022/06/29 19:00:57;;;;;;;9.23;2.73;;;;;;;;;;5342036;27;20155;-79
2022/06/29 19:03:28;;;;;;;5.93;2.15;;;;;;;;;;5345777;27;20467;-79
2022/06/29 19:05:59;;;;;;;8.30;2.30;;;;;;;;;;5338087;27;20020;-79
2022/06/29 19:08:31;;;;;;;3.67;2.28;;;;;;;;;;5346216;27;20274;-79
2022/06/29 19:11:50;;;;;;;5.97;2.22;;;;;;;;;;5344100;27;20031;-79
2022/06/29 19:13:53;;;;;;;4.78;2.10;;;;;;;;;;5339417;27;20032;-79
2022/06/29 19:16:25;;;;;;;6.20;2.00;;;;;;;;;;5343706;27;20039;-78
2022/06/29 19:18:56;;;;;;;8.70;2.40;;;;;;;;;;5337730;27;20289;-79
2022/06/29 19:21:27;;;;;;;5.70;2.93;;;;;;;;;;5342713;27;20305;-78
2022/06/29 19:23:58;;;;;;;3.07;2.13;;;;;;;;;;5341895;27;20034;-78
2022/06/29 19:26:29;;;;;;;6.57;2.70;;;;;;;;;;5339770;27;20043;-78
2022/06/29 19:29:01;;;;;;;7.10;2.45;;;;;;;;;;5336813;27;20499;-78
2022/06/29 19:31:32;;;;;;;5.18;2.70;;;;;;;;;;5335462;27;20136;-79
2022/06/29 19:34:03;;;;;;;4.60;2.47;;;;;;;;;;5334832;27;20043;-80
2022/06/29 19:36:35;;;;;;;6.93;2.80;;;;;;;;;;5337078;27;20058;-79
2022/06/29 19:39:06;;;;;;;7.20;2.80;;;;;;;;;;5335587;27;21587;-79
2022/06/29 19:41:37;;;;;;;6.88;2.85;;;;;;;;;;5337000;27;20092;-79
2022/06/29 19:44:09;;;;;;;5.30;2.97;;;;;;;;;;5335530;27;20619;-79
2022/06/29 19:46:40;;;;;;;4.27;2.87;;;;;;;;;;5330539;27;20348;-79
2022/06/29 19:49:11;;;;;;;8.32;3.28;;;;;;;;;;5337227;27;20375;-80
2022/06/29 19:51:42;;;;;;;11.77;3.67;;;;;;;;;;5336007;27;20028;-79
2022/06/29 19:54:15;;;;;;;6.73;2.40;;;;;;;;;;5334873;27;20296;-78
2022/06/29 19:56:46;;;;;;;7.00;3.55;;;;;;;;;;5334229;27;20855;-78
2022/06/29 19:59:18;;;;;;;5.25;3.08;;;;;;;;;;5335979;27;20030;-79
2022/06/29 20:01:49;;;;;;;9.73;3.93;;;;;;;;;;5334479;27;20015;-78
2022/06/29 20:04:22;;;;;;;7.97;3.50;;;;;;;;;;5339446;27;20322;-79
2022/06/29 20:06:53;;;;;;;6.13;3.40;;;;;;;;;;5337872;27;20768;-79
2022/06/29 20:09:24;;;;;;;5.15;2.97;;;;;;;;;;5338959;27;20035;-78
2022/06/29 20:11:55;;;;;;;9.85;3.28;;;;;;;;;;5328657;27;20050;-79
2022/06/29 20:14:27;;;;;;;10.17;4.43;;;;;;;;;;5340715;27;20024;-78
2022/06/29 20:16:58;;;;;;;7.78;3.80;;;;;;;;;;5336785;27;20250;-78
2022/06/29 20:19:30;;;;;;;6.87;3.80;;;;;;;;;;5335356;27;20032;-79
2022/06/29 20:22:01;;;;;;;8.50;3.58;;;;;;;;;;5337322;27;20281;-79
2022/06/29 20:24:32;;;;;;;8.33;3.80;;;;;;;;;;5336101;27;20031;-79
2022/06/29 20:27:04;;;;;;;5.95;3.50;;;;;;;;;;5334680;27;20067;-78
2022/06/29 20:29:35;;;;;;;8.67;3.20;;;;;;;;;;5337089;27;20065;-78
2022/06/29 20:32:06;;;;;;;7.20;3.87;;;;;;;;;;5335385;27;20291;-79
2022/06/29 20:34:38;;;;;;;4.25;2.88;;;;;;;;;;5331786;27;20273;-79
2022/06/29 20:37:09;;;;;;;5.83;2.60;;;;;;;;;;5334565;27;20026;-78
2022/06/29 20:39:40;;;;;;;6.03;2.70;;;;;;;;;;5335077;27;20356;-79
2022/06/29 20:42:11;;;;;;;8.00;3.28;;;;;;;;;;5340550;27;20297;-78
2022/06/29 20:47:32;;;;;;;4.93;3.08;;;;;;;;;;5330276;27;20114;-79
2022/06/29 20:50:04;;;;;;;3.93;2.90;;;;;;;;;;5332257;27;20131;-79
2022/06/29 20:52:36;;;;;;;6.10;2.95;;;;;;;;;;5332071;27;20372;-79
2022/06/29 20:55:08;;;;;;;3.20;2.90;;;;;;;;;;5331277;27;20039;-79
2022/06/29 20:57:41;;;;;;;4.45;3.10;;;;;;;;;;5338808;27;20139;-79
2022/06/29 21:00:13;;;;;;;7.55;3.25;;;;;;;;;;5336842;27;20084;-79
2022/06/29 21:02:44;;;;;;;3.90;3.42;;;;;;;;;;5336636;27;20031;-79
2022/06/29 21:05:16;;;;;;;6.63;3.53;;;;;;;;;;5341441;27;20576;-79
2022/06/29 21:07:47;;;;;;;8.40;3.70;;;;;;;;;;5344285;27;20246;-80
2022/06/29 21:10:18;;;;;;;6.43;3.53;;;;;;;;;;5324941;28;20345;-79
2022/06/29 21:12:49;;;;;;;5.37;3.57;;;;;;;;;;5326026;27;20328;-79
2022/06/29 21:15:23;;;;;;;4.27;3.13;;;;;;;;;;5331799;27;20262;-79
2022/06/29 21:17:55;;;;;;;5.28;3.17;;;;;;;;;;5345320;27;20360;-79
2022/06/29 21:20:26;;;;;;;6.83;3.93;;;;;;;;;;5357157;27;20117;-79
2022/06/29 21:22:57;;;;;;;6.75;3.83;;;;;;;;;;5364823;27;20285;-78
2022/06/29 21:25:29;;;;;;;11.00;3.70;;;;;;;;;;5362221;27;20090;-77
2022/06/29 21:28:01;;;;;;;9.93;3.90;;;;;;;;;;5354851;27;20294;-79
2022/06/29 21:30:33;;;;;;;7.43;4.10;;;;;;;;;;5351048;27;20306;-78
2022/06/29 21:33:04;;;;;;;10.38;4.93;;;;;;;;;;5351491;27;20080;-78
2022/06/29 21:35:36;;;;;;;9.10;6.13;;;;;;;;;;5347644;27;20106;-79
2022/06/29 21:38:07;;;;;;;7.25;3.90;;;;;;;;;;5345608;27;20976;-79
2022/06/29 21:40:38;;;;;;;10.50;5.10;;;;;;;;;;5348098;27;20028;-79
2022/06/29 21:43:09;;;;;;;9.00;5.53;;;;;;;;;;5347045;27;20262;-79
2022/06/29 21:45:41;;;;;;;5.82;4.18;;;;;;;;;;5338962;27;20126;-79
2022/06/29 21:51:07;;;;;;;6.67;3.97;;;;;;;;;;5340343;27;20530;-79
2022/06/29 21:51:09;;;;;;;6.95;4.50;;;;;;;;;;5340899;27;20289;-78
2022/06/29 21:53:41;;;;;;;7.70;4.38;;;;;;;;;;5342866;27;20106;-79
2022/06/29 21:56:13;;;;;;;8.23;4.40;;;;;;;;;;5343942;27;20028;-79
2022/06/29 21:58:44;;;;;;;8.43;5.78;;;;;;;;;;5343985;27;20047;-78
2022/06/29 22:01:15;;;;;;;8.77;5.95;;;;;;;;;;5340145;27;20049;-78
2022/06/29 22:03:49;;;;;;;9.63;4.43;;;;;;;;;;5342868;27;20479;-78
2022/06/29 22:06:21;;;;;;;9.25;6.85;;;;;;;;;;5343526;27;20891;-78
2022/06/29 22:08:52;;;;;;;8.93;5.90;;;;;;;;;;5341797;27;20088;-78
2022/06/29 22:11:24;;;;;;;10.00;6.32;;;;;;;;;;5340830;27;20390;-78
2022/06/29 22:13:55;;;;;;;10.15;7.38;;;;;;;;;;5339996;27;20042;-78
2022/06/29 22:16:26;;;;;;;8.57;6.63;;;;;;;;;;5341863;27;20046;-79
2022/06/29 22:18:58;;;;;;;8.23;6.28;;;;;;;;;;5340002;27;20110;-79